Terminal Aerodrome Forecast
Issued by NWS

Home | Current Version | Previous Version | Text Only | Print | Product List | Glossary On
Versions: 1 2 3 4 5 6 7 8 9 10 11 12 13 14 15 16 17 18 19 20 21 22 23
000
FTUS43 KGRB 231100
TAFATW
TAF
KATW 231135Z 2312/2412 VRB03KT 3SM BR SCT002 OVC009
      TEMPO 2312/2314 1/2SM FG VV002
     FM231400 08006KT 6SM BR BKN010
      TEMPO 2314/2316 2SM BR BKN006
     FM231900 08007KT P6SM BKN023
     FM240200 05004KT 5SM BR BKN012
     FM240600 05003KT 3SM BR OVC005=

USA.gov is the U.S. government's official web portal to all federal, state and local government web resources and services.